createdAt,value
2022-10-20T00:02:17.024Z,13.31
2022-10-20T00:05:05.643Z,13.38
2022-10-20T00:07:55.369Z,13.33
2022-10-20T00:10:43.695Z,13.22
2022-10-20T00:13:32.383Z,13.25
2022-10-20T00:16:21.234Z,13.19
2022-10-20T00:19:09.655Z,13.18
2022-10-20T00:21:58.013Z,13.27
2022-10-20T00:24:47.789Z,13.19
2022-10-20T00:27:36.587Z,13.11
2022-10-20T00:30:25.777Z,13.09
2022-10-20T00:33:14.404Z,13.13
2022-10-20T00:36:03.096Z,13.13
2022-10-20T00:38:52.204Z,13.20
2022-10-20T00:41:41.993Z,13.17
2022-10-20T00:44:50.493Z,13.20
2022-10-20T00:47:40.542Z,13.27
2022-10-20T00:50:31.143Z,13.21
2022-10-20T00:53:19.908Z,13.19
2022-10-20T00:56:08.559Z,13.12
2022-10-20T00:58:58.594Z,13.19
2022-10-20T01:01:47.186Z,13.14
2022-10-20T01:04:36.036Z,13.10
2022-10-20T01:07:24.494Z,13.07
2022-10-20T01:10:13.224Z,13.09
2022-10-20T01:13:03.758Z,13.03
2022-10-20T01:15:56.647Z,12.97
2022-10-20T01:18:47.842Z,13.02
2022-10-20T01:21:54.368Z,13.01
2022-10-20T01:24:56.102Z,13.00
2022-10-20T01:27:46.878Z,13.03
2022-10-20T01:30:38.444Z,13.04
2022-10-20T01:33:32.513Z,13.01
2022-10-20T01:36:22.357Z,13.05
2022-10-20T01:39:13.867Z,13.04
2022-10-20T01:42:03.328Z,13.06
2022-10-20T01:44:55.430Z,13.07
2022-10-20T01:47:44.640Z,13.10
2022-10-20T01:50:34.870Z,13.07
2022-10-20T01:53:23.603Z,13.08
2022-10-20T01:56:18.453Z,13.12
2022-10-20T01:59:34.830Z,13.04
2022-10-20T02:02:41.693Z,13.04
2022-10-20T02:05:51.352Z,13.01
2022-10-20T02:08:45.342Z,12.82
2022-10-20T02:11:41.168Z,12.88
2022-10-20T02:14:33.287Z,12.93
2022-10-20T02:17:22.944Z,12.86
2022-10-20T02:20:13.993Z,12.78
2022-10-20T02:23:04.153Z,12.68
2022-10-20T02:25:55.916Z,12.76
2022-10-20T02:28:48.860Z,12.78
2022-10-20T02:31:37.834Z,12.86
2022-10-20T02:34:27.957Z,12.88
2022-10-20T02:37:18.476Z,12.56
2022-10-20T02:40:07.957Z,12.98
2022-10-20T02:42:56.728Z,12.85
2022-10-20T02:45:45.338Z,12.86
2022-10-20T02:48:34.008Z,12.72
2022-10-20T02:51:22.640Z,12.64
2022-10-20T02:54:12.774Z,12.62
2022-10-20T02:57:01.404Z,12.64
2022-10-20T02:59:50.039Z,12.46
2022-10-20T03:02:38.656Z,12.41
2022-10-20T03:05:27.638Z,12.54
2022-10-20T03:08:16.852Z,12.57
2022-10-20T03:11:07.294Z,11.85
2022-10-20T03:13:55.958Z,12.44
2022-10-20T03:16:44.547Z,12.26
2022-10-20T03:19:33.114Z,12.51
2022-10-20T03:22:21.835Z,12.45
2022-10-20T03:25:10.324Z,12.42
2022-10-20T03:28:00.484Z,12.45
2022-10-20T03:30:49.603Z,11.41
2022-10-20T03:33:38.393Z,11.70
2022-10-20T03:36:27.008Z,12.07
2022-10-20T03:39:15.706Z,12.29
2022-10-20T03:42:04.376Z,12.25
2022-10-20T03:44:54.427Z,12.24
2022-10-20T03:47:42.999Z,12.16
2022-10-20T03:50:31.714Z,12.01
2022-10-20T03:53:20.367Z,12.02
2022-10-20T03:56:10.493Z,11.71
2022-10-20T03:58:59.111Z,12.00
2022-10-20T04:01:50.347Z,11.87
2022-10-20T04:04:38.994Z,12.04
2022-10-20T04:07:27.772Z,11.11
2022-10-20T04:10:17.728Z,11.97
2022-10-20T04:13:06.459Z,11.96
2022-10-20T04:15:55.122Z,11.85
2022-10-20T04:18:45.233Z,11.92
2022-10-20T04:21:33.811Z,11.60
2022-10-20T04:24:22.757Z,11.86
2022-10-20T04:27:11.392Z,11.73
2022-10-20T04:30:00.098Z,11.08
2022-10-20T04:32:48.798Z,11.76
2022-10-20T04:35:39.137Z,11.28
2022-10-20T04:38:28.385Z,11.72
2022-10-20T04:41:17.114Z,11.78
2022-10-20T04:44:06.157Z,11.33
2022-10-20T04:46:55.653Z,11.80
2022-10-20T04:49:44.325Z,11.74
2022-10-20T04:52:34.539Z,11.82
2022-10-20T04:55:23.253Z,11.80
2022-10-20T04:58:11.958Z,11.95
2022-10-20T05:01:03.419Z,11.82
2022-10-20T05:03:52.462Z,11.93
2022-10-20T05:06:41.377Z,11.91
2022-10-20T05:09:32.465Z,11.75
2022-10-20T05:12:21.059Z,11.76
2022-10-20T05:15:10.234Z,11.19
2022-10-20T05:17:59.441Z,11.80
2022-10-20T05:21:10.299Z,11.99
2022-10-20T05:23:57.803Z,12.10
2022-10-20T05:26:47.925Z,12.07
2022-10-20T05:29:36.564Z,12.02
2022-10-20T05:32:25.508Z,11.98
2022-10-20T05:35:14.104Z,12.07
2022-10-20T05:38:02.738Z,12.13
2022-10-20T05:40:51.333Z,12.07
2022-10-20T05:43:41.779Z,12.00
2022-10-20T05:46:33.827Z,11.54
2022-10-20T05:49:23.734Z,11.79
2022-10-20T05:52:12.341Z,11.60
2022-10-20T05:55:00.994Z,12.07
2022-10-20T05:57:50.846Z,12.15
2022-10-20T06:00:52.345Z,11.67
2022-10-20T06:03:40.878Z,12.31
2022-10-20T06:06:31.365Z,12.37
2022-10-20T06:09:20.909Z,12.52
2022-10-20T06:12:09.575Z,12.47
2022-10-20T06:14:58.203Z,12.49
2022-10-20T06:17:49.658Z,12.46
2022-10-20T06:20:38.312Z,12.47
2022-10-20T06:23:26.994Z,12.45
2022-10-20T06:26:17.836Z,12.44
2022-10-20T06:29:07.444Z,12.25
2022-10-20T06:31:57.386Z,11.92
2022-10-20T06:34:47.445Z,12.32
2022-10-20T06:37:36.242Z,12.32
2022-10-20T06:40:24.878Z,12.33
2022-10-20T06:43:13.465Z,12.48
2022-10-20T06:46:04.444Z,12.52
2022-10-20T06:48:57.734Z,12.45
2022-10-20T06:51:49.060Z,12.31
2022-10-20T06:54:37.770Z,12.19
2022-10-20T06:57:26.500Z,12.14
2022-10-20T07:00:16.110Z,12.00
2022-10-20T07:03:04.870Z,12.10
2022-10-20T07:05:53.544Z,12.23
2022-10-20T07:08:43.971Z,12.19
2022-10-20T07:11:33.920Z,11.79
2022-10-20T07:14:22.921Z,12.33
2022-10-20T07:17:11.518Z,12.34
2022-10-20T07:20:00.227Z,12.25
2022-10-20T07:22:48.868Z,12.51
2022-10-20T07:25:39.023Z,12.36
2022-10-20T07:28:28.085Z,12.45
2022-10-20T07:31:19.054Z,12.18
2022-10-20T07:34:26.887Z,12.45
2022-10-20T07:37:16.065Z,12.26
2022-10-20T07:40:05.125Z,12.51
2022-10-20T07:42:55.254Z,12.56
2022-10-20T07:45:43.867Z,12.51
2022-10-20T07:48:33.383Z,12.29
2022-10-20T07:51:28.687Z,12.61
2022-10-20T07:54:17.387Z,12.71
2022-10-20T07:57:06.261Z,12.83
2022-10-20T07:59:56.395Z,12.90
2022-10-20T08:02:45.717Z,12.99
2022-10-20T08:05:34.477Z,12.46
2022-10-20T08:08:23.445Z,12.76
2022-10-20T08:11:12.532Z,12.42
2022-10-20T08:14:01.225Z,12.76
2022-10-20T08:16:51.409Z,12.80
2022-10-20T08:19:50.448Z,12.98
2022-10-20T08:22:39.439Z,13.05
2022-10-20T08:25:28.543Z,12.86
2022-10-20T08:28:17.158Z,13.24
2022-10-20T08:31:06.995Z,13.25
2022-10-20T08:33:57.076Z,12.98
2022-10-20T08:36:45.778Z,12.81
2022-10-20T08:39:34.426Z,12.62
2022-10-20T08:42:23.578Z,12.90
2022-10-20T08:45:16.950Z,13.15
2022-10-20T08:48:05.779Z,13.37
2022-10-20T08:50:58.113Z,13.39
2022-10-20T08:53:48.373Z,13.49
2022-10-20T08:56:37.055Z,13.54
2022-10-20T08:59:29.968Z,13.59
2022-10-20T09:02:19.399Z,13.52
2022-10-20T09:05:11.196Z,13.63
2022-10-20T09:08:03.238Z,13.70
2022-10-20T09:10:54.826Z,13.83
2022-10-20T09:13:44.298Z,13.93
2022-10-20T09:16:58.636Z,13.99
2022-10-20T09:19:51.344Z,14.29
2022-10-20T09:22:40.173Z,14.41
2022-10-20T09:25:30.295Z,14.57
2022-10-20T09:28:23.977Z,14.65
2022-10-20T09:31:23.253Z,14.60
2022-10-20T09:34:22.903Z,14.26
2022-10-20T09:37:14.719Z,14.73
2022-10-20T09:40:05.413Z,14.86
2022-10-20T09:42:58.555Z,14.93
2022-10-20T09:45:54.912Z,14.66
2022-10-20T09:48:49.058Z,14.88
2022-10-20T09:51:38.410Z,14.75
2022-10-20T09:54:27.967Z,14.56
2022-10-20T09:57:20.270Z,14.22
2022-10-20T10:00:36.308Z,14.82
2022-10-20T10:03:26.637Z,14.96
2022-10-20T10:06:30.393Z,14.95
2022-10-20T10:09:28.846Z,14.88
2022-10-20T10:12:20.533Z,14.85
2022-10-20T10:15:30.477Z,14.57
2022-10-20T10:18:24.681Z,14.97
2022-10-20T10:21:17.694Z,14.94
2022-10-20T10:24:06.999Z,15.22
2022-10-20T10:26:57.098Z,15.17
2022-10-20T10:29:45.758Z,15.01
2022-10-20T10:32:45.678Z,14.72
2022-10-20T10:35:40.034Z,14.38
2022-10-20T10:38:28.942Z,14.27
2022-10-20T10:41:25.435Z,14.15
2022-10-20T10:44:25.255Z,13.95
2022-10-20T10:47:33.395Z,13.84
2022-10-20T10:50:32.326Z,13.88
2022-10-20T10:53:35.024Z,14.01
2022-10-20T10:56:33.239Z,14.03
2022-10-20T10:59:24.059Z,14.04
2022-10-20T11:02:51.077Z,14.03
2022-10-20T11:06:18.022Z,13.97
2022-10-20T11:09:26.393Z,13.98
2022-10-20T11:12:47.458Z,14.02
2022-10-20T11:15:53.115Z,14.02
2022-10-20T11:18:57.568Z,13.90
2022-10-20T11:21:57.881Z,13.81
2022-10-20T11:24:59.296Z,13.93
2022-10-20T11:27:48.012Z,13.79
2022-10-20T11:30:36.788Z,13.88
2022-10-20T11:33:30.470Z,13.98
2022-10-20T11:36:23.376Z,13.96
2022-10-20T11:39:19.253Z,13.95
2022-10-20T11:42:21.938Z,13.88
2022-10-20T11:45:29.480Z,13.79
2022-10-20T11:48:25.247Z,13.76
2022-10-20T11:51:45.184Z,13.98
2022-10-20T11:54:50.068Z,14.04
2022-10-20T11:57:55.398Z,14.04
2022-10-20T12:01:06.503Z,14.16
2022-10-20T12:04:15.144Z,14.40
2022-10-20T12:07:24.539Z,14.53
2022-10-20T12:10:41.006Z,14.48
2022-10-20T12:13:38.622Z,14.71
2022-10-20T12:17:05.242Z,14.75
2022-10-20T12:19:54.264Z,14.69
2022-10-20T12:22:43.726Z,14.73
2022-10-20T12:25:44.153Z,14.81
2022-10-20T12:28:43.565Z,15.04
2022-10-20T12:32:05.155Z,15.03
2022-10-20T12:34:55.814Z,14.98
2022-10-20T12:37:55.069Z,14.99
2022-10-20T12:40:50.525Z,14.93
2022-10-20T12:43:50.906Z,14.71
2022-10-20T12:46:45.087Z,14.53
2022-10-20T12:49:36.196Z,14.71
2022-10-20T12:52:28.901Z,14.85
2022-10-20T12:55:19.952Z,15.09
2022-10-20T12:58:27.145Z,15.37
2022-10-20T13:01:15.870Z,15.46
2022-10-20T13:04:04.541Z,15.54
2022-10-20T13:06:53.198Z,15.87
2022-10-20T13:10:00.218Z,16.13
2022-10-20T13:12:52.044Z,16.69
2022-10-20T13:15:48.738Z,17.65
2022-10-20T13:18:44.153Z,18.05
2022-10-20T13:21:35.265Z,18.31
2022-10-20T13:24:30.854Z,18.46
2022-10-20T13:27:19.738Z,19.06
2022-10-20T13:30:10.659Z,19.12
2022-10-20T13:33:11.605Z,18.75
2022-10-20T13:36:22.800Z,19.14
2022-10-20T13:39:20.027Z,20.53
2022-10-20T13:42:22.306Z,22.15
2022-10-20T13:45:22.788Z,23.55
2022-10-20T13:48:25.010Z,23.71
2022-10-20T13:51:20.553Z,23.29
2022-10-20T13:54:09.805Z,23.31
2022-10-20T13:56:59.101Z,23.88
2022-10-20T13:59:57.259Z,23.87
2022-10-20T14:02:55.489Z,23.30
2022-10-20T14:05:45.517Z,23.25
2022-10-20T14:08:44.174Z,23.13
2022-10-20T14:11:33.614Z,23.47
2022-10-20T14:14:25.380Z,23.06
2022-10-20T14:17:22.758Z,22.45
2022-10-20T14:20:20.564Z,21.52
2022-10-20T14:23:12.746Z,20.82
2022-10-20T14:26:03.384Z,20.19
2022-10-20T14:28:53.550Z,19.25
2022-10-20T14:31:42.729Z,18.36
2022-10-20T14:34:34.764Z,17.76
2022-10-20T14:37:31.832Z,17.20
2022-10-20T14:40:24.254Z,16.78
2022-10-20T14:43:17.874Z,16.79
2022-10-20T14:46:09.032Z,15.85
2022-10-20T14:48:59.856Z,16.57
2022-10-20T14:51:57.310Z,16.61
2022-10-20T14:54:47.055Z,16.46
2022-10-20T14:57:46.131Z,16.28
2022-10-20T15:00:37.312Z,16.30
2022-10-20T15:03:26.064Z,16.16
2022-10-20T15:06:18.799Z,16.12
2022-10-20T15:09:07.626Z,16.01
2022-10-20T15:11:56.495Z,15.75
2022-10-20T15:14:49.137Z,15.66
2022-10-20T15:17:40.399Z,15.69
2022-10-20T15:20:38.964Z,15.38
2022-10-20T15:23:29.373Z,14.70
2022-10-20T15:26:18.109Z,15.24
2022-10-20T15:29:09.089Z,15.26
2022-10-20T15:31:59.638Z,14.91
2022-10-20T15:34:48.479Z,15.04
2022-10-20T15:37:37.506Z,14.67
2022-10-20T15:40:26.599Z,14.51
2022-10-20T15:43:17.004Z,14.70
2022-10-20T15:46:06.365Z,14.52
2022-10-20T15:48:56.609Z,14.42
2022-10-20T15:51:47.114Z,13.54
2022-10-20T15:54:36.295Z,14.32
2022-10-20T15:57:25.232Z,14.09
2022-10-20T16:00:15.014Z,14.17
2022-10-20T16:03:04.065Z,14.12
2022-10-20T16:05:54.648Z,13.93
2022-10-20T16:08:44.074Z,13.62
2022-10-20T16:11:33.049Z,13.57
2022-10-20T16:14:21.738Z,13.94
2022-10-20T16:17:10.377Z,13.79
2022-10-20T16:19:59.155Z,13.92
2022-10-20T16:22:49.615Z,13.99
2022-10-20T16:25:41.881Z,13.97
2022-10-20T16:28:31.109Z,13.83
2022-10-20T16:31:20.631Z,13.94
2022-10-20T16:34:09.325Z,14.01
2022-10-20T16:36:58.488Z,13.94
2022-10-20T16:39:49.080Z,13.70
2022-10-20T16:42:37.700Z,13.83
2022-10-20T16:45:26.622Z,13.83
2022-10-20T16:48:15.284Z,13.90
2022-10-20T16:51:07.004Z,12.87
2022-10-20T16:53:58.440Z,13.90
2022-10-20T16:56:51.823Z,13.90
2022-10-20T16:59:41.459Z,13.75
2022-10-20T17:02:30.700Z,13.87
2022-10-20T17:05:26.395Z,13.60
2022-10-20T17:08:17.745Z,13.78
2022-10-20T17:11:09.089Z,13.75
2022-10-20T17:14:01.009Z,13.69
2022-10-20T17:16:50.915Z,13.73
2022-10-20T17:19:41.952Z,13.73
2022-10-20T17:22:32.714Z,13.63
2022-10-20T17:25:22.525Z,13.71
2022-10-20T17:28:12.502Z,13.71
2022-10-20T17:31:09.156Z,13.70
2022-10-20T17:34:00.252Z,13.71
2022-10-20T17:36:51.338Z,13.69
2022-10-20T17:39:42.664Z,13.70
2022-10-20T17:42:34.107Z,13.80
2022-10-20T17:45:24.355Z,13.84
2022-10-20T17:48:16.869Z,13.65
2022-10-20T17:51:08.204Z,13.52
2022-10-20T17:54:00.809Z,13.35
2022-10-20T17:56:53.018Z,13.44
2022-10-20T17:59:52.887Z,13.46
2022-10-20T18:02:53.099Z,13.50
2022-10-20T18:05:44.969Z,13.39
2022-10-20T18:08:35.839Z,13.12
2022-10-20T18:11:28.728Z,13.58
2022-10-20T18:14:20.435Z,13.58
2022-10-20T18:17:10.538Z,13.43
2022-10-20T18:20:01.012Z,13.79
2022-10-20T18:22:52.594Z,13.67
2022-10-20T18:25:42.972Z,13.43
2022-10-20T18:28:33.549Z,13.67
2022-10-20T18:31:25.495Z,13.56
2022-10-20T18:34:17.453Z,13.55
2022-10-20T18:37:07.514Z,13.53
2022-10-20T18:40:01.704Z,13.50
2022-10-20T18:42:52.594Z,13.51
2022-10-20T18:45:43.124Z,13.45
2022-10-20T18:48:34.474Z,13.61
2022-10-20T18:51:25.524Z,13.18
2022-10-20T18:54:15.628Z,13.42
2022-10-20T18:57:07.243Z,13.41
2022-10-20T18:59:57.056Z,13.38
2022-10-20T19:02:55.686Z,13.20
2022-10-20T19:05:47.635Z,13.41
2022-10-20T19:08:38.760Z,13.42
2022-10-20T19:11:31.625Z,13.43
2022-10-20T19:14:23.564Z,13.43
2022-10-20T19:17:13.817Z,13.45
2022-10-20T19:20:04.374Z,13.53
2022-10-20T19:22:54.653Z,13.48
2022-10-20T19:25:45.174Z,13.44
2022-10-20T19:28:38.670Z,13.17
2022-10-20T19:31:33.142Z,13.45
2022-10-20T19:34:25.585Z,13.35
2022-10-20T19:37:15.787Z,13.28
2022-10-20T19:40:06.470Z,13.26
2022-10-20T19:42:56.973Z,13.36
2022-10-20T19:45:49.155Z,13.39
2022-10-20T19:48:41.575Z,13.36
2022-10-20T19:51:31.755Z,13.31
2022-10-20T19:54:25.375Z,13.45
2022-10-20T19:57:15.965Z,13.41
2022-10-20T20:00:08.050Z,13.26
2022-10-20T20:02:58.414Z,13.16
2022-10-20T20:05:51.583Z,13.18
2022-10-20T20:08:41.396Z,13.17
2022-10-20T20:11:32.952Z,13.22
2022-10-20T20:14:22.904Z,13.31
2022-10-20T20:17:13.032Z,12.94
2022-10-20T20:20:02.107Z,13.29
2022-10-20T20:22:53.202Z,13.25
2022-10-20T20:25:45.225Z,13.23
2022-10-20T20:28:38.144Z,12.03
2022-10-20T20:31:28.268Z,13.29
2022-10-20T20:34:17.498Z,13.28
2022-10-20T20:37:06.264Z,13.29
2022-10-20T20:39:57.012Z,13.27
2022-10-20T20:42:45.614Z,13.03
2022-10-20T20:45:34.217Z,13.16
2022-10-20T20:48:23.097Z,13.11
2022-10-20T20:51:12.805Z,13.03
2022-10-20T20:54:01.657Z,13.06
2022-10-20T20:56:51.754Z,13.07
2022-10-20T20:59:40.404Z,12.98
2022-10-20T21:02:29.013Z,13.05
2022-10-20T21:05:18.359Z,12.90
2022-10-20T21:08:07.037Z,13.15
2022-10-20T21:10:55.767Z,13.08
2022-10-20T21:13:48.011Z,13.09
2022-10-20T21:16:38.080Z,13.04
2022-10-20T21:19:26.613Z,12.82
2022-10-20T21:22:15.211Z,12.90
2022-10-20T21:25:03.814Z,12.89
2022-10-20T21:27:52.434Z,12.67
2022-10-20T21:30:42.923Z,12.92
2022-10-20T21:33:31.648Z,12.95
2022-10-20T21:36:22.244Z,12.75
2022-10-20T21:39:15.964Z,12.95
2022-10-20T21:42:04.642Z,12.79
2022-10-20T21:44:53.209Z,12.81
2022-10-20T21:47:44.013Z,12.08
2022-10-20T21:50:35.974Z,12.76
2022-10-20T21:53:25.095Z,12.57
2022-10-20T21:56:14.963Z,12.91
2022-10-20T21:59:03.708Z,12.81
2022-10-20T22:01:53.428Z,12.78
2022-10-20T22:04:43.493Z,12.23
2022-10-20T22:07:32.154Z,12.74
2022-10-20T22:10:20.789Z,12.86
2022-10-20T22:13:09.493Z,12.80
2022-10-20T22:15:58.098Z,12.28
2022-10-20T22:18:47.208Z,12.74
2022-10-20T22:21:40.771Z,12.64
2022-10-20T22:24:30.743Z,12.50
2022-10-20T22:27:41.468Z,12.65
2022-10-20T22:30:27.938Z,12.61
2022-10-20T22:33:16.814Z,12.67
2022-10-20T22:36:06.225Z,12.12
2022-10-20T22:38:56.405Z,12.76
2022-10-20T22:41:45.028Z,12.63
2022-10-20T22:44:33.648Z,12.19
2022-10-20T22:47:22.243Z,11.56
2022-10-20T22:50:11.224Z,11.92
2022-10-20T22:52:59.870Z,12.37
2022-10-20T22:55:49.962Z,12.30
2022-10-20T22:58:38.869Z,12.35
2022-10-20T23:01:27.598Z,12.37
2022-10-20T23:04:16.453Z,12.27
2022-10-20T23:07:05.107Z,12.13
2022-10-20T23:09:53.717Z,11.99
2022-10-20T23:12:43.829Z,11.96
2022-10-20T23:15:32.559Z,11.93
2022-10-20T23:18:21.415Z,11.04
2022-10-20T23:21:10.446Z,11.99
2022-10-20T23:23:59.059Z,11.92
2022-10-20T23:26:47.733Z,11.86
2022-10-20T23:29:37.805Z,11.82
2022-10-20T23:32:26.485Z,11.67
2022-10-20T23:35:15.156Z,11.63
2022-10-20T23:38:03.937Z,11.40
2022-10-20T23:40:52.572Z,11.54
2022-10-20T23:43:41.384Z,11.46
2022-10-20T23:46:33.627Z,11.34
2022-10-20T23:49:22.195Z,11.34
2022-10-20T23:52:10.837Z,11.34
2022-10-20T23:54:59.619Z,11.39
2022-10-20T23:57:48.465Z,11.42
